Time;durP1;ratioP1;P1;durP2;ratioP2;P2;SDS_P1;SDS_P2;PMS_P1;PMS_P2;Temp;Humidity;BMP_temperature;BMP_pressure;BME280_temperature;BME280_humidity;BME280_pressure;Samples;Min_cycle;Max_cycle;Signal;HPM_P1;HPM_P2
2021/12/05 00:23:37;;;;;;;25.25;4.18;;;;;;;3.22;100.00;99526.00;4952060;29;20552;-81
2021/12/05 00:26:04;;;;;;;22.27;4.32;;;;;;;3.24;100.00;99530.31;4933093;29;20391;-82
2021/12/05 00:29:17;;;;;;;21.50;4.30;;;;;;;3.15;100.00;99524.69;4936361;29;20043;-80
2021/12/05 00:34:09;;;;;;;17.65;3.63;;;;;;;3.10;100.00;99530.44;4946595;29;20043;-81
2021/12/05 00:37:29;;;;;;;24.48;4.32;;;;;;;3.07;100.00;99533.38;4945288;29;20036;-81
2021/12/05 00:43:05;;;;;;;16.63;3.00;;;;;;;3.10;100.00;99538.56;4947678;29;20083;-80
2021/12/05 00:50:17;;;;;;;23.50;3.72;;;;;;;2.93;100.00;99539.69;4961725;29;20115;-80
2021/12/05 01:03:28;;;;;;;8.85;2.63;;;;;;;2.88;100.00;99540.00;4949182;29;20024;-80
2021/12/05 01:13:42;;;;;;;20.35;4.40;;;;;;;2.85;100.00;99534.81;4946049;29;20066;-80
2021/12/05 01:16:13;;;;;;;20.02;2.72;;;;;;;2.89;100.00;99528.25;4944967;29;20048;-80
2021/12/05 01:18:40;;;;;;;7.55;2.03;;;;;;;2.86;100.00;99544.66;4945529;29;20078;-80
2021/12/05 01:21:12;;;;;;;17.17;2.95;;;;;;;2.85;100.00;99532.13;4929438;29;20043;-80
2021/12/05 01:24:30;;;;;;;16.70;2.50;;;;;;;2.84;100.00;99541.22;4929251;29;20035;-81
2021/12/05 01:26:48;;;;;;;14.48;3.03;;;;;;;2.70;100.00;99536.72;4948882;29;20048;-81
2021/12/05 01:39:53;;;;;;;21.83;2.95;;;;;;;2.71;100.00;99538.47;4946877;29;20108;-81
2021/12/05 02:07:42;;;;;;;20.95;2.83;;;;;;;2.52;100.00;99560.44;4944587;29;20042;-81
2021/12/05 02:15:11;;;;;;;30.27;3.08;;;;;;;2.46;100.00;99550.09;4946120;29;20043;-80
2021/12/05 02:42:15;;;;;;;14.48;2.45;;;;;;;2.52;100.00;99533.44;4950557;29;20059;-81
2021/12/05 02:44:43;;;;;;;19.17;2.72;;;;;;;2.62;100.00;99525.56;4945235;29;20043;-81
2021/12/05 02:47:15;;;;;;;15.98;2.38;;;;;;;2.55;100.00;99535.06;4960045;29;20117;-81
2021/12/05 02:49:46;;;;;;;15.20;3.23;;;;;;;2.63;100.00;99524.63;4959653;29;20147;-81
2021/12/05 02:52:18;;;;;;;17.15;2.55;;;;;;;2.60;100.00;99523.97;4943607;29;20484;-81
2021/12/05 02:54:50;;;;;;;11.00;1.88;;;;;;;2.56;100.00;99526.88;4943923;29;20036;-81
2021/12/05 02:57:19;;;;;;;17.42;2.53;;;;;;;2.64;100.00;99520.97;4945718;29;20028;-82
2021/12/05 02:59:51;;;;;;;15.30;2.15;;;;;;;2.60;100.00;99523.97;4930635;29;20036;-82
2021/12/05 03:02:19;;;;;;;12.68;2.22;;;;;;;2.69;100.00;99523.31;4949857;29;20027;-82
2021/12/05 03:04:48;;;;;;;14.57;2.42;;;;;;;2.66;100.00;99519.00;4932977;29;20028;-81
2021/12/05 03:07:25;;;;;;;18.38;2.58;;;;;;;2.69;100.00;99516.09;4949548;29;20047;-81
2021/12/05 03:09:51;;;;;;;11.48;2.58;;;;;;;2.76;100.00;99517.41;4932743;29;20121;-81
2021/12/05 03:12:18;;;;;;;7.55;2.20;;;;;;;2.71;100.00;99516.84;4948035;29;20040;-81
2021/12/05 03:14:46;;;;;;;10.02;2.17;;;;;;;2.81;100.00;99516.25;4964030;29;20043;-81
2021/12/05 03:17:13;;;;;;;7.20;1.42;;;;;;;2.78;100.00;99520.00;4932467;29;20031;-81
2021/12/05 03:19:39;;;;;;;14.10;2.50;;;;;;;2.74;100.00;99507.69;4948796;29;20023;-80
2021/12/05 03:22:04;;;;;;;10.88;2.80;;;;;;;2.70;100.00;99515.13;4948251;29;20555;-80
2021/12/05 03:24:30;;;;;;;8.65;1.63;;;;;;;2.63;100.00;99513.81;4949834;29;20103;-81
2021/12/05 03:26:56;;;;;;;14.98;2.47;;;;;;;2.69;100.00;99524.22;4949923;29;20040;-81
2021/12/05 03:29:23;;;;;;;13.38;2.15;;;;;;;2.64;100.00;99518.25;4940692;29;20031;-81
2021/12/05 03:31:51;;;;;;;9.80;2.10;;;;;;;2.75;100.00;99533.72;4951291;29;20024;-81
2021/12/05 03:34:17;;;;;;;15.25;2.72;;;;;;;2.80;100.00;99530.72;4949556;29;20436;-81
2021/12/05 03:36:47;;;;;;;12.98;2.78;;;;;;;2.80;100.00;99536.97;4949600;29;20111;-81
2021/12/05 03:39:13;;;;;;;10.77;2.03;;;;;;;2.74;100.00;99516.66;4949977;29;20126;-81
2021/12/05 03:41:40;;;;;;;15.50;2.50;;;;;;;2.78;100.00;99525.41;4935735;29;20062;-81
2021/12/05 03:44:09;;;;;;;19.80;3.10;;;;;;;2.85;100.00;99533.97;4954125;29;20023;-81
2021/12/05 03:46:34;;;;;;;8.65;2.50;;;;;;;2.85;100.00;99524.00;4938979;29;20092;-81
2021/12/05 03:49:05;;;;;;;11.88;2.58;;;;;;;2.94;100.00;99536.03;4922087;29;20048;-80
2021/12/05 03:51:33;;;;;;;15.25;2.60;;;;;;;2.87;100.00;99530.19;4948292;29;20046;-81
2021/12/05 03:53:59;;;;;;;8.98;2.65;;;;;;;2.90;100.00;99534.50;4973315;28;20502;-81
2021/12/05 03:56:24;;;;;;;10.18;2.35;;;;;;;2.97;100.00;99543.06;4931475;29;20023;-81
2021/12/05 03:58:51;;;;;;;8.60;2.35;;;;;;;3.01;100.00;99537.34;4947127;29;20035;-81
2021/12/05 04:01:19;;;;;;;14.05;2.78;;;;;;;2.96;100.00;99535.94;4948361;29;20043;-81
2021/12/05 04:03:47;;;;;;;8.98;1.80;;;;;;;2.99;100.00;99530.31;4962955;29;20044;-81
2021/12/05 04:06:15;;;;;;;11.90;2.40;;;;;;;2.99;100.00;99522.22;4962843;29;20111;-81
2021/12/05 04:08:41;;;;;;;9.57;2.47;;;;;;;2.97;100.00;99514.22;4927406;29;20063;-81
2021/12/05 04:11:15;;;;;;;11.80;2.70;;;;;;;2.93;100.00;99513.53;4950888;29;20428;-81
2021/12/05 04:13:42;;;;;;;20.13;3.20;;;;;;;2.99;100.00;99517.66;4947401;29;20044;-81
2021/12/05 04:16:09;;;;;;;14.48;2.95;;;;;;;2.96;100.00;99509.75;4930252;29;20104;-81
2021/12/05 04:18:35;;;;;;;11.65;2.38;;;;;;;3.02;100.00;99511.19;4950237;29;20074;-81
2021/12/05 04:21:02;;;;;;;16.83;2.53;;;;;;;2.93;100.00;99499.16;4947984;29;20439;-81
2021/12/05 04:23:28;;;;;;;11.48;3.22;;;;;;;3.04;100.00;99507.38;4949996;29;20039;-82
2021/12/05 04:25:55;;;;;;;7.47;2.38;;;;;;;3.07;100.00;99509.03;4948058;29;20032;-81
2021/12/05 04:28:22;;;;;;;7.28;2.47;;;;;;;3.05;100.00;99506.44;4945320;29;20036;-81
2021/12/05 04:30:48;;;;;;;9.00;2.30;;;;;;;3.08;100.00;99511.63;4956713;29;20028;-81
2021/12/05 04:33:14;;;;;;;9.55;2.28;;;;;;;3.08;100.00;99506.22;4932063;29;20032;-82
2021/12/05 04:35:39;;;;;;;12.45;2.30;;;;;;;3.13;100.00;99517.56;4948524;29;20048;-83
2021/12/05 04:38:05;;;;;;;9.85;2.30;;;;;;;3.14;100.00;99513.03;4949582;29;20031;-82
2021/12/05 04:40:33;;;;;;;17.05;1.90;;;;;;;3.17;100.00;99507.41;4963159;28;20129;-80
2021/12/05 04:42:59;;;;;;;5.82;2.15;;;;;;;3.16;100.00;99502.09;4930942;29;20043;-82
2021/12/05 04:45:28;;;;;;;11.38;2.00;;;;;;;3.19;100.00;99508.16;4929538;29;20031;-81
2021/12/05 04:47:55;;;;;;;10.55;1.77;;;;;;;3.22;100.00;99516.06;4945949;29;20036;-82
2021/12/05 04:50:22;;;;;;;13.90;2.28;;;;;;;3.21;100.00;99513.44;4945802;29;20048;-81
2021/12/05 04:52:49;;;;;;;8.23;1.77;;;;;;;3.08;100.00;99492.69;4946239;29;20032;-81
2021/12/05 04:55:15;;;;;;;8.52;2.15;;;;;;;3.18;100.00;99519.97;4957717;29;20195;-82
2021/12/05 04:57:41;;;;;;;9.15;1.75;;;;;;;3.20;100.00;99506.28;4943304;29;20040;-82
2021/12/05 05:00:16;;;;;;;12.32;1.85;;;;;;;3.27;100.00;99515.72;4946529;28;20067;-81
2021/12/05 05:02:43;;;;;;;8.82;1.85;;;;;;;3.30;100.00;99521.78;4946864;29;20118;-81
2021/12/05 05:05:10;;;;;;;10.95;2.05;;;;;;;3.27;100.00;99516.59;4959289;28;20036;-82
2021/12/05 05:07:38;;;;;;;8.65;1.70;;;;;;;3.27;100.00;99523.84;4951390;29;20046;-82
2021/12/05 05:10:17;;;;;;;10.95;1.90;;;;;;;3.10;100.00;99501.56;4962797;28;20106;-81
2021/12/05 05:12:43;;;;;;;8.48;1.73;;;;;;;3.23;100.00;99520.50;4962309;28;20119;-82
2021/12/05 05:15:11;;;;;;;9.60;1.50;;;;;;;3.26;100.00;99516.69;4930615;29;20059;-81
2021/12/05 05:17:39;;;;;;;7.10;1.60;;;;;;;3.28;100.00;99514.75;4947062;29;20027;-81
2021/12/05 05:20:18;;;;;;;8.77;1.65;;;;;;;3.30;100.00;99520.94;4946600;29;20029;-81
2021/12/05 05:23:06;;;;;;;3.33;1.48;;;;;;;3.30;100.00;99529.91;4946117;29;20481;-81
2021/12/05 05:47:15;;;;;;;10.75;1.30;;;;;;;3.42;100.00;99533.56;4945824;29;20042;-81
2021/12/05 05:52:10;;;;;;;2.47;1.20;;;;;;;3.42;100.00;99528.16;4945907;29;20095;-80
2021/12/05 05:54:35;;;;;;;6.07;1.77;;;;;;;3.39;100.00;99533.78;4944747;29;20032;-81
2021/12/05 05:57:24;;;;;;;4.03;1.20;;;;;;;3.44;100.00;99537.06;4945333;29;20031;-81
2021/12/05 06:05:06;;;;;;;9.25;1.65;;;;;;;3.38;100.00;99548.31;4944711;29;20028;-81
2021/12/05 06:07:33;;;;;;;10.15;1.73;;;;;;;3.37;100.00;99549.25;4946433;29;20026;-82
2021/12/05 06:09:58;;;;;;;4.40;1.35;;;;;;;3.34;100.00;99554.03;4958489;28;20099;-82
2021/12/05 06:12:24;;;;;;;12.82;1.50;;;;;;;3.34;100.00;99560.28;4942421;29;20031;-81
2021/12/05 06:14:49;;;;;;;5.32;1.60;;;;;;;3.30;100.00;99562.34;4935670;29;20039;-82
2021/12/05 06:17:18;;;;;;;5.88;1.88;;;;;;;3.29;100.00;99565.16;4926661;29;20047;-80
2021/12/05 06:19:43;;;;;;;6.82;1.75;;;;;;;3.26;100.00;99563.56;4942165;29;20040;-82
2021/12/05 06:22:09;;;;;;;7.50;1.80;;;;;;;3.22;100.00;99564.72;4945134;29;20087;-81
2021/12/05 06:24:34;;;;;;;7.25;1.70;;;;;;;3.21;100.00;99568.41;4940883;29;20035;-81
2021/12/05 06:27:01;;;;;;;5.05;1.80;;;;;;;3.19;100.00;99574.91;4945273;29;20372;-81
2021/12/05 06:29:33;;;;;;;8.40;1.98;;;;;;;3.18;100.00;99575.88;4950239;29;20034;-82
2021/12/05 06:37:43;;;;;;;5.70;1.60;;;;;;;3.11;100.00;99580.84;4943103;29;20111;-81
2021/12/05 06:46:00;;;;;;;5.15;2.08;;;;;;;3.04;100.00;99574.13;4924969;29;20048;-82
2021/12/05 06:48:33;;;;;;;5.40;1.90;;;;;;;3.05;100.00;99579.44;4910856;29;20455;-80
2021/12/05 06:50:59;;;;;;;5.65;2.10;;;;;;;3.06;100.00;99591.97;4944163;29;20044;-80
2021/12/05 06:53:24;;;;;;;4.43;1.90;;;;;;;3.04;100.00;99596.63;4946542;29;20048;-81
2021/12/05 06:55:50;;;;;;;5.05;1.83;;;;;;;3.04;100.00;99590.34;4930516;29;20372;-81
2021/12/05 06:58:16;;;;;;;5.05;2.25;;;;;;;3.04;100.00;99599.31;4947600;29;20047;-81
2021/12/05 07:00:41;;;;;;;4.00;2.30;;;;;;;3.09;100.00;99604.41;4946146;29;20032;-82
2021/12/05 07:03:09;;;;;;;8.60;2.58;;;;;;;2.94;100.00;99587.41;4961466;29;20039;-81
2021/12/05 07:08:04;;;;;;;5.88;2.40;;;;;;;3.04;100.00;99617.38;4954718;29;20103;-82
2021/12/05 07:10:37;;;;;;;4.28;2.40;;;;;;;3.04;100.00;99610.13;4959977;28;20047;-82
2021/12/05 07:15:53;;;;;;;7.53;2.50;;;;;;;3.04;100.00;99620.94;4957639;29;19915;-80
2021/12/05 07:26:14;;;;;;;3.97;2.92;;;;;;;3.05;100.00;99630.81;4938999;29;20028;-80
2021/12/05 07:42:24;;;;;;;6.60;2.80;;;;;;;3.12;100.00;99656.44;4944506;29;20031;-79
2021/12/05 07:44:55;;;;;;;4.03;2.28;;;;;;;3.11;100.00;99656.56;4927377;29;20028;-80
2021/12/05 07:47:24;;;;;;;9.30;2.67;;;;;;;3.15;100.00;99665.31;4944074;29;20044;-80
2021/12/05 07:49:52;;;;;;;5.85;2.58;;;;;;;3.15;100.00;99674.31;4945998;29;20048;-81
2021/12/05 07:52:21;;;;;;;7.63;2.80;;;;;;;3.14;100.00;99675.28;4961498;29;20479;-80
2021/12/05 07:54:54;;;;;;;9.10;2.85;;;;;;;3.15;100.00;99673.44;4948436;29;20032;-80
2021/12/05 07:57:29;;;;;;;4.28;2.20;;;;;;;3.16;100.00;99667.06;4948637;29;21319;-80
2021/12/05 08:16:11;;;;;;;2.83;2.63;;;;;;;3.29;100.00;99697.72;4956740;29;20039;-80
2021/12/05 08:18:37;;;;;;;11.07;3.20;;;;;;;3.26;100.00;99690.69;4948151;29;20032;-80
2021/12/05 08:21:05;;;;;;;7.05;2.70;;;;;;;3.33;100.00;99701.06;4956197;29;20051;-81
2021/12/05 08:23:31;;;;;;;5.60;2.70;;;;;;;3.33;100.00;99699.25;4976606;28;20055;-80
2021/12/05 08:26:09;;;;;;;5.88;2.72;;;;;;;3.35;100.00;99705.41;4943956;29;20038;-80
2021/12/05 08:31:23;;;;;;;6.13;3.25;;;;;;;3.37;100.00;99705.31;4947558;29;20131;-79
2021/12/05 08:43:53;;;;;;;3.30;3.00;;;;;;;3.40;100.00;99699.69;4945743;29;20028;-81
2021/12/05 10:10:33;;;;;;;8.73;3.40;;;;;;;3.95;100.00;99800.59;4963120;28;20047;-79
2021/12/05 10:13:11;;;;;;;5.07;2.75;;;;;;;3.94;100.00;99804.31;4949484;29;20037;-80
2021/12/05 10:37:54;;;;;;;9.80;3.72;;;;;;;4.26;100.00;99844.53;4949076;29;20111;-79
2021/12/05 10:40:34;;;;;;;5.65;3.38;;;;;;;4.24;100.00;99844.63;4939383;29;20128;-80
2021/12/05 10:43:01;;;;;;;5.53;3.42;;;;;;;4.19;100.00;99847.66;4954460;29;20055;-79
2021/12/05 10:45:35;;;;;;;4.88;3.20;;;;;;;4.15;100.00;99839.84;4930688;29;20038;-79
2021/12/05 10:48:07;;;;;;;3.83;3.42;;;;;;;4.17;100.00;99846.06;4945353;29;20046;-79
2021/12/05 10:50:32;;;;;;;3.75;3.35;;;;;;;4.23;100.00;99849.19;4929788;29;20096;-80
2021/12/05 10:53:17;;;;;;;6.15;3.42;;;;;;;4.17;100.00;99855.03;4946988;29;20103;-79
2021/12/05 10:55:42;;;;;;;5.78;3.53;;;;;;;4.12;100.00;99851.78;4930672;29;20043;-80
2021/12/05 10:58:08;;;;;;;5.10;3.95;;;;;;;4.33;100.00;99841.31;4947858;29;20070;-80
2021/12/05 11:00:34;;;;;;;5.95;3.55;;;;;;;4.29;100.00;99844.31;4946142;29;20046;-81
2021/12/05 11:03:32;;;;;;;5.82;3.63;;;;;;;4.19;100.00;99849.50;4942450;29;20024;-81
2021/12/05 11:05:57;;;;;;;4.50;3.42;;;;;;;4.20;100.00;99857.53;4949520;29;20055;-80
2021/12/05 11:08:38;;;;;;;6.93;3.65;;;;;;;4.23;100.00;99868.16;4946272;29;20396;-79
2021/12/05 11:11:11;;;;;;;6.28;3.60;;;;;;;4.17;100.00;99854.19;4946796;29;20036;-79
2021/12/05 11:13:39;;;;;;;9.00;4.93;;;;;;;4.24;100.00;99853.63;4948753;29;20064;-79
2021/12/05 11:16:32;;;;;;;4.85;4.07;;;;;;;4.26;100.00;99852.66;4930584;29;20474;-80
2021/12/05 11:18:58;;;;;;;4.38;3.13;;;;;;;4.27;100.00;99859.84;4944649;29;20036;-80
2021/12/05 11:21:35;;;;;;;3.67;3.03;;;;;;;4.22;100.00;99865.56;4947638;29;20108;-80
2021/12/05 11:24:16;;;;;;;3.95;3.33;;;;;;;4.19;100.00;99866.63;4944958;29;20033;-79
2021/12/05 11:26:46;;;;;;;4.75;3.63;;;;;;;4.29;100.00;99861.44;4946114;29;20040;-81
2021/12/05 11:29:12;;;;;;;4.85;3.65;;;;;;;4.33;100.00;99872.94;4955298;29;20040;-80
2021/12/05 11:31:38;;;;;;;3.53;2.95;;;;;;;4.46;100.00;99868.41;4969023;28;20047;-80
2021/12/05 11:34:05;;;;;;;3.65;2.90;;;;;;;4.55;100.00;99869.59;4936803;29;20032;-80
2021/12/05 11:36:38;;;;;;;3.78;3.00;;;;;;;4.62;100.00;99865.47;4952744;29;20035;-81
2021/12/05 11:39:23;;;;;;;3.05;2.28;;;;;;;4.73;100.00;99867.44;4935700;29;20044;-81
2021/12/05 11:41:50;;;;;;;1.95;1.83;;;;;;;4.69;100.00;99861.38;4967009;29;20483;-81
2021/12/05 11:44:21;;;;;;;3.38;1.88;;;;;;;4.79;100.00;99876.00;4948911;29;20128;-80
2021/12/05 11:46:47;;;;;;;4.90;1.88;;;;;;;4.71;100.00;99880.25;4950390;29;20103;-80
2021/12/05 11:49:24;;;;;;;4.03;2.13;;;;;;;4.75;100.00;99876.31;4951573;29;20044;-80
2021/12/05 11:51:58;;;;;;;1.52;1.25;;;;;;;4.87;100.00;99880.91;4948159;29;20040;-82
2021/12/05 11:54:30;;;;;;;1.67;1.00;;;;;;;4.91;100.00;99886.97;4948037;29;20043;-79
2021/12/05 11:57:11;;;;;;;1.40;1.30;;;;;;;4.94;100.00;99892.16;4946257;29;20064;-78
2021/12/05 11:59:41;;;;;;;1.27;1.17;;;;;;;5.05;100.00;99894.09;4944046;29;20063;-79
2021/12/05 12:02:23;;;;;;;2.65;1.30;;;;;;;5.22;100.00;99896.47;4949220;29;20083;-79
2021/12/05 12:05:00;;;;;;;2.30;1.20;;;;;;;5.13;100.00;99894.41;4952832;29;20068;-79
2021/12/05 12:07:38;;;;;;;1.60;1.20;;;;;;;5.08;100.00;99893.88;4951075;29;20042;-79
2021/12/05 12:10:16;;;;;;;1.83;1.35;;;;;;;4.96;100.00;99890.22;4965524;28;20487;-79
2021/12/05 12:12:46;;;;;;;1.77;1.17;;;;;;;5.02;100.00;99897.03;4947825;29;20074;-79
2021/12/05 12:15:14;;;;;;;2.80;1.20;;;;;;;4.99;100.00;99895.41;4947769;29;20039;-79
2021/12/05 12:17:41;;;;;;;4.13;1.17;;;;;;;4.95;100.00;99904.75;4947527;29;20032;-80
2021/12/05 12:20:11;;;;;;;1.17;1.08;;;;;;;4.82;100.00;99910.19;4951077;29;20050;-79
2021/12/05 12:22:38;;;;;;;1.70;1.00;;;;;;;4.84;100.00;99897.38;4948857;29;20139;-79
2021/12/05 12:25:09;;;;;;;1.58;1.20;;;;;;;4.92;100.00;99904.94;4938468;29;20087;-78
2021/12/05 12:27:35;;;;;;;2.88;1.20;;;;;;;4.91;100.00;99905.94;4952039;29;20055;-81
2021/12/05 12:30:08;;;;;;;1.75;1.10;;;;;;;4.89;100.00;99900.63;4967679;29;20043;-80
2021/12/05 12:32:39;;;;;;;1.27;1.10;;;;;;;4.83;100.00;99909.19;4966792;28;20027;-80
2021/12/05 12:35:19;;;;;;;1.25;1.15;;;;;;;4.75;100.00;99901.59;4960429;29;20113;-80
2021/12/05 12:38:08;;;;;;;2.65;1.30;;;;;;;4.73;100.00;99910.81;4952935;29;20031;-80
2021/12/05 12:40:39;;;;;;;1.80;1.33;;;;;;;4.80;100.00;99912.13;4950502;29;20032;-80
2021/12/05 12:43:07;;;;;;;3.10;1.27;;;;;;;4.79;100.00;99907.69;4945021;29;20040;-81
2021/12/05 12:45:41;;;;;;;3.00;1.30;;;;;;;4.80;100.00;99903.97;4952736;29;20476;-81
2021/12/05 12:48:16;;;;;;;1.67;1.20;;;;;;;4.77;100.00;99923.19;4956424;29;20043;-80
2021/12/05 12:50:51;;;;;;;1.58;1.48;;;;;;;4.76;100.00;99924.19;4934015;29;20111;-81
2021/12/05 12:53:22;;;;;;;2.72;1.60;;;;;;;4.79;100.00;99929.38;4966862;28;20040;-82
2021/12/05 12:55:50;;;;;;;2.50;1.30;;;;;;;4.82;100.00;99931.00;4951135;29;20066;-82
2021/12/05 12:58:43;;;;;;;2.55;1.58;;;;;;;4.74;100.00;99939.69;4952961;29;20035;-82
2021/12/05 13:01:30;;;;;;;1.60;1.50;;;;;;;4.71;100.00;99934.47;4967675;29;20058;-82
2021/12/05 13:04:39;;;;;;;1.90;1.80;;;;;;;4.72;100.00;99942.50;4953390;29;20049;-81
2021/12/05 13:12:32;;;;;;;3.20;2.15;;;;;;;4.45;100.00;99942.56;4966881;28;20098;-81
2021/12/05 13:15:11;;;;;;;1.95;1.73;;;;;;;4.55;100.00;99948.22;4953332;29;20062;-81
2021/12/05 13:17:42;;;;;;;2.72;1.90;;;;;;;4.56;100.00;99952.69;4947800;29;20031;-80
2021/12/05 13:20:10;;;;;;;2.20;2.00;;;;;;;4.56;100.00;99955.38;4947666;29;20046;-81
2021/12/05 13:23:03;;;;;;;3.08;1.90;;;;;;;4.66;100.00;99961.91;4950236;29;20034;-80
2021/12/05 13:25:30;;;;;;;4.20;2.03;;;;;;;4.65;100.00;99968.28;4928509;29;20032;-79
2021/12/05 13:27:57;;;;;;;3.95;2.17;;;;;;;4.65;100.00;99959.28;4953032;29;20375;-78
2021/12/05 13:30:32;;;;;;;2.60;2.30;;;;;;;4.61;100.00;99961.34;4926711;29;20483;-78
2021/12/05 13:33:18;;;;;;;8.18;2.33;;;;;;;4.65;100.00;99964.72;4945518;29;20062;-80
2021/12/05 13:35:44;;;;;;;2.47;2.28;;;;;;;4.54;100.00;99955.50;4948259;28;20051;-79
2021/12/05 13:38:33;;;;;;;2.33;1.90;;;;;;;4.60;100.00;99974.03;4963646;28;20071;-79
2021/12/05 13:41:16;;;;;;;5.65;2.20;;;;;;;4.62;100.00;99986.63;4955865;28;20035;-79
2021/12/05 13:44:01;;;;;;;3.08;2.53;;;;;;;4.60;100.00;99984.00;4982220;28;20034;-78
2021/12/05 13:46:38;;;;;;;3.25;2.28;;;;;;;4.60;100.00;99986.72;4951460;29;20117;-78
2021/12/05 13:49:32;;;;;;;3.22;2.78;;;;;;;4.59;100.00;99982.25;4955084;29;20111;-79
2021/12/05 13:52:35;;;;;;;3.00;2.30;;;;;;;4.66;100.00;99996.28;4955919;29;20035;-78
2021/12/05 13:55:33;;;;;;;3.45;2.78;;;;;;;4.55;100.00;100000.56;4976835;28;20058;-78
2021/12/05 13:58:17;;;;;;;4.78;2.97;;;;;;;4.62;100.00;100003.75;4959846;29;20574;-79
2021/12/05 14:00:51;;;;;;;8.63;2.92;;;;;;;4.59;100.00;100003.94;4949591;29;20054;-78
2021/12/05 14:03:51;;;;;;;2.80;2.50;;;;;;;4.58;100.00;100013.94;4952598;29;20035;-79
2021/12/05 14:06:36;;;;;;;4.85;3.00;;;;;;;4.53;100.00;100013.38;4945418;29;20032;-80
2021/12/05 14:09:13;;;;;;;9.63;3.10;;;;;;;4.53;100.00;100016.09;4963350;28;20070;-80
2021/12/05 14:12:06;;;;;;;2.70;2.50;;;;;;;4.51;100.00;100018.03;4977719;28;20040;-81
2021/12/05 14:14:44;;;;;;;6.67;2.83;;;;;;;4.44;100.00;100023.97;4967163;29;20039;-81
2021/12/05 14:17:45;;;;;;;3.80;2.95;;;;;;;4.47;100.00;100032.75;4967774;29;20050;-79
2021/12/05 14:20:25;;;;;;;4.10;3.22;;;;;;;4.47;100.00;100037.31;4958001;29;20051;-80
2021/12/05 14:22:51;;;;;;;4.50;3.30;;;;;;;4.42;100.00;100032.19;4966497;29;20419;-81
2021/12/05 14:25:21;;;;;;;4.68;2.97;;;;;;;4.34;100.00;100034.56;4964927;29;20061;-79
2021/12/05 14:27:54;;;;;;;4.38;3.33;;;;;;;4.38;100.00;100055.06;4970944;28;20050;-80
2021/12/05 14:30:22;;;;;;;3.47;3.17;;;;;;;4.34;100.00;100039.97;4966699;29;20035;-80
2021/12/05 14:32:58;;;;;;;4.50;3.30;;;;;;;4.34;100.00;100056.22;4965685;29;20058;-79
2021/12/05 14:35:33;;;;;;;3.40;2.75;;;;;;;4.38;100.00;100058.63;4966289;29;20027;-78
2021/12/05 14:38:04;;;;;;;4.00;3.00;;;;;;;4.38;100.00;100061.34;4966584;28;20465;-78
2021/12/05 14:40:32;;;;;;;4.38;3.38;;;;;;;4.38;100.00;100065.91;4957970;29;20090;-79
2021/12/05 14:43:04;;;;;;;3.67;3.38;;;;;;;4.35;100.00;100066.13;4962012;29;20118;-79
2021/12/05 14:45:32;;;;;;;4.88;3.05;;;;;;;4.39;100.00;100073.06;4945727;29;20031;-80
2021/12/05 14:48:03;;;;;;;6.70;3.55;;;;;;;4.32;100.00;100074.44;4950212;29;20126;-79
2021/12/05 14:50:32;;;;;;;5.93;3.90;;;;;;;4.39;100.00;100083.88;4975223;28;20055;-79
2021/12/05 14:53:02;;;;;;;4.80;3.88;;;;;;;4.34;100.00;100086.91;4979472;28;20053;-80
2021/12/05 14:55:30;;;;;;;6.03;3.60;;;;;;;4.33;100.00;100084.28;4968319;28;20038;-80
2021/12/05 14:57:58;;;;;;;7.78;4.10;;;;;;;4.31;100.00;100094.38;4984589;28;20032;-80
2021/12/05 15:00:32;;;;;;;4.53;3.67;;;;;;;4.31;100.00;100100.69;4965088;29;20031;-79
2021/12/05 15:03:03;;;;;;;5.47;3.47;;;;;;;4.28;100.00;100113.53;4983676;28;20039;-78
2021/12/05 15:05:29;;;;;;;4.57;3.75;;;;;;;4.29;100.00;100105.31;4951495;29;20039;-80
2021/12/05 15:08:08;;;;;;;4.03;3.58;;;;;;;4.30;100.00;100112.47;4972944;28;20047;-79
2021/12/05 15:10:34;;;;;;;4.63;3.70;;;;;;;4.28;100.00;100119.84;4953041;29;20050;-82
2021/12/05 15:13:00;;;;;;;5.50;4.13;;;;;;;4.29;100.00;100118.84;4953657;29;20061;-80
2021/12/05 15:15:26;;;;;;;5.53;3.97;;;;;;;4.20;100.00;100117.63;4969486;28;20023;-81
2021/12/05 15:17:53;;;;;;;7.10;4.40;;;;;;;4.20;100.00;100124.88;4968986;29;20114;-81
2021/12/05 15:20:23;;;;;;;4.93;4.43;;;;;;;4.18;100.00;100130.41;4975796;28;20031;-81
2021/12/05 15:22:52;;;;;;;5.13;4.32;;;;;;;4.20;100.00;100138.44;4971164;29;20074;-81
2021/12/05 15:25:20;;;;;;;9.35;5.00;;;;;;;4.14;100.00;100142.38;4968360;29;20031;-80
2021/12/05 15:27:47;;;;;;;8.40;6.07;;;;;;;4.13;100.00;100140.66;4967724;29;20038;-81
2021/12/05 15:30:15;;;;;;;8.10;5.57;;;;;;;4.14;100.00;100155.94;4984726;28;20031;-80
2021/12/05 15:32:41;;;;;;;8.20;4.80;;;;;;;4.12;100.00;100163.28;4966882;29;20031;-79
2021/12/05 15:35:11;;;;;;;8.45;5.55;;;;;;;4.05;100.00;100157.41;4966889;29;20035;-80
2021/12/05 15:37:37;;;;;;;10.30;5.65;;;;;;;4.03;100.00;100162.06;4972793;28;20027;-80
2021/12/05 15:40:06;;;;;;;8.07;5.13;;;;;;;4.09;100.00;100176.19;4970339;28;20062;-80
2021/12/05 15:42:36;;;;;;;6.57;5.22;;;;;;;4.13;100.00;100181.31;4967048;28;20035;-81
2021/12/05 15:45:07;;;;;;;5.63;4.40;;;;;;;4.34;100.00;100191.72;4951811;28;20103;-82
2021/12/05 15:47:34;;;;;;;5.70;4.40;;;;;;;4.21;100.00;100197.94;4966890;28;20039;-81
2021/12/05 15:50:09;;;;;;;7.38;5.00;;;;;;;4.12;100.00;100198.50;4963186;29;20099;-80
2021/12/05 15:52:37;;;;;;;5.82;4.75;;;;;;;4.13;100.00;100202.97;4964002;29;20386;-82
2021/12/05 15:55:13;;;;;;;5.63;4.85;;;;;;;4.08;100.00;100198.81;4968505;28;20038;-82
2021/12/05 15:57:42;;;;;;;7.85;5.25;;;;;;;4.13;100.00;100216.53;4944698;29;20079;-83
2021/12/05 16:00:16;;;;;;;9.02;4.53;;;;;;;4.13;100.00;100219.22;4962471;29;20387;-84
2021/12/05 16:02:46;;;;;;;8.88;4.80;;;;;;;4.09;100.00;100214.97;4972349;28;20043;-82
2021/12/05 16:05:19;;;;;;;8.68;5.00;;;;;;;4.14;100.00;100237.22;4947465;29;20031;-82
2021/12/05 16:07:45;;;;;;;7.30;5.57;;;;;;;4.18;100.00;100229.75;4964177;28;20035;-81
2021/12/05 16:10:23;;;;;;;7.57;5.57;;;;;;;4.18;100.00;100232.47;4967290;28;20062;-83
2021/12/05 16:12:52;;;;;;;11.25;6.20;;;;;;;4.21;100.00;100235.88;4978912;28;20031;-80
2021/12/05 16:15:20;;;;;;;9.00;5.55;;;;;;;4.20;100.00;100239.53;4967998;29;20095;-85
2021/12/05 16:17:58;;;;;;;12.18;7.05;;;;;;;4.15;100.00;100236.25;4955390;29;20027;-83
2021/12/05 16:20:44;;;;;;;12.43;6.85;;;;;;;4.19;100.00;100236.94;4985574;28;20031;-82
2021/12/05 16:23:21;;;;;;;12.50;6.57;;;;;;;4.16;100.00;100245.25;4954017;29;20554;-83
2021/12/05 16:26:00;;;;;;;12.10;7.47;;;;;;;4.15;100.00;100252.50;4964133;29;20074;-80
2021/12/05 16:28:31;;;;;;;10.18;5.55;;;;;;;4.08;100.00;100253.84;4943559;28;20031;-81
2021/12/05 16:31:01;;;;;;;6.80;5.03;;;;;;;4.11;100.00;100255.50;4946118;29;20039;-83
2021/12/05 16:33:29;;;;;;;7.95;5.00;;;;;;;4.04;100.00;100265.84;4963037;28;20047;-86
2021/12/05 16:35:58;;;;;;;6.72;5.35;;;;;;;4.10;100.00;100275.41;4965842;28;20067;-81
2021/12/05 16:38:39;;;;;;;6.70;5.10;;;;;;;4.13;100.00;100281.53;4970479;28;20040;-81
2021/12/05 16:41:06;;;;;;;7.72;5.50;;;;;;;4.12;100.00;100282.50;4966291;28;20440;-84
2021/12/05 16:43:36;;;;;;;16.52;5.75;;;;;;;4.06;100.00;100274.75;4965562;28;20035;-83
2021/12/05 16:46:16;;;;;;;8.27;5.13;;;;;;;4.06;100.00;100282.88;4966809;28;20031;-82
2021/12/05 16:48:44;;;;;;;8.85;6.25;;;;;;;4.06;100.00;100285.56;4966332;28;20031;-83
2021/12/05 16:51:14;;;;;;;24.00;13.88;;;;;;;4.10;100.00;100295.28;4948474;28;20094;-82
2021/12/05 16:53:45;;;;;;;6.32;5.00;;;;;;;4.12;100.00;100295.19;4976872;28;20032;-82
2021/12/05 16:56:14;;;;;;;7.68;5.43;;;;;;;4.14;100.00;100294.09;4962477;29;20051;-83
2021/12/05 16:58:42;;;;;;;6.55;5.43;;;;;;;4.17;100.00;100295.75;4947209;29;20086;-82
2021/12/05 17:01:15;;;;;;;10.88;5.25;;;;;;;4.11;100.00;100299.69;4964796;29;20024;-82
2021/12/05 17:03:44;;;;;;;7.63;5.57;;;;;;;4.16;100.00;100308.41;4981992;28;20032;-84
2021/12/05 17:06:11;;;;;;;7.88;5.07;;;;;;;4.13;100.00;100316.75;4963729;29;20467;-82
2021/12/05 17:08:44;;;;;;;8.00;5.43;;;;;;;4.05;100.00;100314.50;4962555;28;20027;-83
2021/12/05 17:11:12;;;;;;;7.35;5.10;;;;;;;4.13;100.00;100316.75;4946386;28;20030;-82
2021/12/05 17:13:50;;;;;;;9.18;5.65;;;;;;;4.20;100.00;100322.66;4979964;28;20035;-81
2021/12/05 17:16:16;;;;;;;11.05;5.72;;;;;;;4.16;100.00;100326.53;4966174;28;20343;-82